sensor_id;sensor_type;location;lat;lon;timestamp;pressure;altitude;pressure_sealevel;temperature;humidity
38614;BME280;24369;49.480;8.488;2022-07-29T00:00:26;100059.22;;;31.71;21.75
38614;BME280;24369;49.480;8.488;2022-07-29T00:02:51;100119.69;;;32.19;22.84
38614;BME280;24369;49.480;8.488;2022-07-29T00:05:17;100101.22;;;32.01;22.04
38614;BME280;24369;49.480;8.488;2022-07-29T00:07:42;100046.72;;;31.91;22.43
38614;BME280;24369;49.480;8.488;2022-07-29T00:10:08;100085.69;;;31.91;22.98
38614;BME280;24369;49.480;8.488;2022-07-29T00:12:33;100189.75;;;32.55;22.82
38614;BME280;24369;49.480;8.488;2022-07-29T00:14:58;100117.53;;;32.11;22.56
38614;BME280;24369;49.480;8.488;2022-07-29T00:17:24;100280.97;;;33.34;22.22
38614;BME280;24369;49.480;8.488;2022-07-29T00:19:50;100167.38;;;32.63;22.76
38614;BME280;24369;49.480;8.488;2022-07-29T00:22:15;100045.88;;;31.75;22.66
38614;BME280;24369;49.480;8.488;2022-07-29T00:24:41;100103.09;;;32.16;22.28
38614;BME280;24369;49.480;8.488;2022-07-29T00:27:06;100165.75;;;32.62;22.65
38614;BME280;24369;49.480;8.488;2022-07-29T00:29:31;100245.22;;;33.30;22.39
38614;BME280;24369;49.480;8.488;2022-07-29T00:31:57;100016.72;;;31.86;22.57
38614;BME280;24369;49.480;8.488;2022-07-29T00:34:22;100053.25;;;32.10;22.69
38614;BME280;24369;49.480;8.488;2022-07-29T00:37:06;100274.19;;;33.86;22.00
38614;BME280;24369;49.480;8.488;2022-07-29T00:39:31;100225.03;;;33.26;22.29
38614;BME280;24369;49.480;8.488;2022-07-29T00:41:56;99883.66;;;30.82;23.06
38614;BME280;24369;49.480;8.488;2022-07-29T00:44:22;100024.09;;;31.75;22.93
38614;BME280;24369;49.480;8.488;2022-07-29T00:46:47;100143.94;;;32.41;22.99
38614;BME280;24369;49.480;8.488;2022-07-29T00:49:13;100269.25;;;33.33;22.80
38614;BME280;24369;49.480;8.488;2022-07-29T00:51:38;100262.69;;;33.34;22.70
38614;BME280;24369;49.480;8.488;2022-07-29T00:54:05;100269.31;;;33.13;23.16
38614;BME280;24369;49.480;8.488;2022-07-29T00:56:32;100211.28;;;32.66;23.42
38614;BME280;24369;49.480;8.488;2022-07-29T00:58:58;100258.94;;;33.10;23.13
38614;BME280;24369;49.480;8.488;2022-07-29T01:01:24;100115.66;;;31.91;23.21
38614;BME280;24369;49.480;8.488;2022-07-29T01:03:49;100252.41;;;32.90;23.64
38614;BME280;24369;49.480;8.488;2022-07-29T01:06:16;100194.94;;;32.46;23.63
38614;BME280;24369;49.480;8.488;2022-07-29T01:08:43;100184.03;;;32.10;23.12
38614;BME280;24369;49.480;8.488;2022-07-29T01:11:09;100253.78;;;32.93;23.23
38614;BME280;24369;49.480;8.488;2022-07-29T01:13:35;99909.16;;;30.71;23.17
38614;BME280;24369;49.480;8.488;2022-07-29T01:16:10;100027.38;;;31.41;23.80
38614;BME280;24369;49.480;8.488;2022-07-29T01:18:42;100247.56;;;32.62;23.84
38614;BME280;24369;49.480;8.488;2022-07-29T01:21:24;100018.69;;;31.39;23.49
38614;BME280;24369;49.480;8.488;2022-07-29T01:29:42;100116.13;;;31.42;23.33
38614;BME280;24369;49.480;8.488;2022-07-29T01:32:14;100232.28;;;32.66;23.22
38614;BME280;24369;49.480;8.488;2022-07-29T01:34:49;99885.00;;;29.86;23.81
38614;BME280;24369;49.480;8.488;2022-07-29T01:37:22;100185.69;;;32.42;23.25
38614;BME280;24369;49.480;8.488;2022-07-29T01:39:50;100233.06;;;32.77;22.35
38614;BME280;24369;49.480;8.488;2022-07-29T01:45:02;100233.09;;;32.71;21.79
38614;BME280;24369;49.480;8.488;2022-07-29T01:47:35;100064.34;;;31.22;22.04
38614;BME280;24369;49.480;8.488;2022-07-29T01:50:06;100015.94;;;31.34;22.05
38614;BME280;24369;49.480;8.488;2022-07-29T01:52:39;100081.00;;;31.51;22.06
38614;BME280;24369;49.480;8.488;2022-07-29T01:55:13;99630.22;;;28.84;22.39
38614;BME280;24369;49.480;8.488;2022-07-29T01:57:42;100230.09;;;32.63;21.99
38614;BME280;24369;49.480;8.488;2022-07-29T02:00:08;100089.16;;;31.41;21.75
38614;BME280;24369;49.480;8.488;2022-07-29T02:02:35;100223.00;;;32.41;21.60
38614;BME280;24369;49.480;8.488;2022-07-29T02:05:03;100114.00;;;31.80;21.54
38614;BME280;24369;49.480;8.488;2022-07-29T02:07:32;99918.41;;;30.54;21.79
38614;BME280;24369;49.480;8.488;2022-07-29T02:10:00;100103.88;;;31.75;21.80
38614;BME280;24369;49.480;8.488;2022-07-29T02:12:27;99989.44;;;30.83;21.64
38614;BME280;24369;49.480;8.488;2022-07-29T02:14:55;100214.28;;;32.29;21.94
38614;BME280;24369;49.480;8.488;2022-07-29T02:17:25;100204.47;;;32.02;21.76
38614;BME280;24369;49.480;8.488;2022-07-29T02:19:53;100010.41;;;30.93;21.91
38614;BME280;24369;49.480;8.488;2022-07-29T02:22:21;100217.00;;;32.39;21.68
38614;BME280;24369;49.480;8.488;2022-07-29T02:24:49;100220.28;;;32.41;21.61
38614;BME280;24369;49.480;8.488;2022-07-29T02:27:18;100090.00;;;31.56;21.51
38614;BME280;24369;49.480;8.488;2022-07-29T02:29:45;100066.25;;;31.31;21.16
38614;BME280;24369;49.480;8.488;2022-07-29T02:32:13;100046.09;;;31.17;21.52
38614;BME280;24369;49.480;8.488;2022-07-29T02:34:39;100107.72;;;31.64;21.05
38614;BME280;24369;49.480;8.488;2022-07-29T02:37:09;100189.97;;;31.81;21.49
38614;BME280;24369;49.480;8.488;2022-07-29T02:39:35;100124.59;;;31.71;21.53
38614;BME280;24369;49.480;8.488;2022-07-29T02:42:05;100227.66;;;32.20;21.35
38614;BME280;24369;49.480;8.488;2022-07-29T02:44:32;100147.72;;;31.53;21.33
38614;BME280;24369;49.480;8.488;2022-07-29T02:47:30;100213.75;;;32.17;21.58
38614;BME280;24369;49.480;8.488;2022-07-29T02:50:07;100218.66;;;32.15;21.72
38614;BME280;24369;49.480;8.488;2022-07-29T02:52:38;100088.84;;;31.27;21.80
38614;BME280;24369;49.480;8.488;2022-07-29T02:55:30;100219.75;;;32.03;21.82
38614;BME280;24369;49.480;8.488;2022-07-29T02:58:10;100006.84;;;30.20;21.80
38614;BME280;24369;49.480;8.488;2022-07-29T03:00:40;100216.41;;;31.81;21.98
38614;BME280;24369;49.480;8.488;2022-07-29T03:03:09;100137.38;;;31.50;21.88
38614;BME280;24369;49.480;8.488;2022-07-29T03:05:36;100041.94;;;30.79;22.05
38614;BME280;24369;49.480;8.488;2022-07-29T03:08:04;100224.63;;;31.91;22.13
38614;BME280;24369;49.480;8.488;2022-07-29T03:10:31;100120.69;;;31.31;22.17
38614;BME280;24369;49.480;8.488;2022-07-29T03:12:57;100216.72;;;31.90;21.86
38614;BME280;24369;49.480;8.488;2022-07-29T03:15:24;100025.56;;;30.69;22.58
38614;BME280;24369;49.480;8.488;2022-07-29T03:17:50;100144.59;;;31.09;22.42
38614;BME280;24369;49.480;8.488;2022-07-29T03:20:16;100156.38;;;31.35;22.39
38614;BME280;24369;49.480;8.488;2022-07-29T03:22:43;99969.13;;;30.28;22.42
38614;BME280;24369;49.480;8.488;2022-07-29T03:25:14;100218.25;;;31.65;22.69
38614;BME280;24369;49.480;8.488;2022-07-29T03:27:41;100249.34;;;31.69;22.42
38614;BME280;24369;49.480;8.488;2022-07-29T03:30:07;99977.63;;;29.94;22.51
38614;BME280;24369;49.480;8.488;2022-07-29T03:32:33;100093.34;;;30.85;22.30
38614;BME280;24369;49.480;8.488;2022-07-29T03:34:58;100136.47;;;31.24;22.41
38614;BME280;24369;49.480;8.488;2022-07-29T03:37:24;100238.72;;;31.78;22.23
38614;BME280;24369;49.480;8.488;2022-07-29T03:39:50;100216.41;;;31.81;22.41
38614;BME280;24369;49.480;8.488;2022-07-29T03:42:19;100061.28;;;30.40;22.56
38614;BME280;24369;49.480;8.488;2022-07-29T03:44:47;100221.03;;;31.86;22.50
38614;BME280;24369;49.480;8.488;2022-07-29T03:47:16;99975.09;;;30.20;22.53
38614;BME280;24369;49.480;8.488;2022-07-29T03:49:46;100120.28;;;30.82;22.91
38614;BME280;24369;49.480;8.488;2022-07-29T03:52:13;100107.84;;;31.06;22.58
38614;BME280;24369;49.480;8.488;2022-07-29T03:54:39;99918.50;;;29.59;23.03
38614;BME280;24369;49.480;8.488;2022-07-29T03:57:06;100222.38;;;31.68;22.97
38614;BME280;24369;49.480;8.488;2022-07-29T03:59:32;100223.47;;;31.67;23.19
38614;BME280;24369;49.480;8.488;2022-07-29T04:02:00;100226.19;;;31.67;23.09
38614;BME280;24369;49.480;8.488;2022-07-29T04:04:26;100105.13;;;31.01;22.97
38614;BME280;24369;49.480;8.488;2022-07-29T04:06:51;99958.41;;;30.11;22.96
38614;BME280;24369;49.480;8.488;2022-07-29T04:09:16;100135.53;;;30.93;23.23
38614;BME280;24369;49.480;8.488;2022-07-29T04:11:42;100034.66;;;30.37;22.97
38614;BME280;24369;49.480;8.488;2022-07-29T04:14:09;100150.09;;;31.29;22.80
38614;BME280;24369;49.480;8.488;2022-07-29T04:16:34;100047.78;;;30.55;23.56
38614;BME280;24369;49.480;8.488;2022-07-29T04:18:59;100228.91;;;31.67;23.71
38614;BME280;24369;49.480;8.488;2022-07-29T04:21:25;100231.84;;;31.55;23.19
38614;BME280;24369;49.480;8.488;2022-07-29T04:23:50;99957.69;;;29.79;23.85
38614;BME280;24369;49.480;8.488;2022-07-29T04:26:17;100105.03;;;30.81;23.59
38614;BME280;24369;49.480;8.488;2022-07-29T04:28:42;100236.53;;;31.70;23.70
38614;BME280;24369;49.480;8.488;2022-07-29T04:31:08;100211.28;;;31.17;23.76
38614;BME280;24369;49.480;8.488;2022-07-29T04:33:34;100004.72;;;30.27;23.79
38614;BME280;24369;49.480;8.488;2022-07-29T04:35:59;100009.03;;;29.80;23.97
38614;BME280;24369;49.480;8.488;2022-07-29T04:38:24;100241.44;;;31.68;23.42
38614;BME280;24369;49.480;8.488;2022-07-29T04:40:50;99921.84;;;29.77;24.06
38614;BME280;24369;49.480;8.488;2022-07-29T04:43:15;100187.03;;;31.10;23.90
38614;BME280;24369;49.480;8.488;2022-07-29T04:45:41;100249.09;;;31.81;24.10
38614;BME280;24369;49.480;8.488;2022-07-29T04:48:06;99992.69;;;30.17;23.98
38614;BME280;24369;49.480;8.488;2022-07-29T04:50:32;99980.34;;;29.94;24.15
38614;BME280;24369;49.480;8.488;2022-07-29T04:52:57;100127.69;;;31.07;23.99
38614;BME280;24369;49.480;8.488;2022-07-29T04:55:23;100021.13;;;30.52;24.15
38614;BME280;24369;49.480;8.488;2022-07-29T04:57:48;100236.88;;;31.99;24.01
38614;BME280;24369;49.480;8.488;2022-07-29T05:00:14;100083.56;;;30.84;24.55
38614;BME280;24369;49.480;8.488;2022-07-29T05:02:39;100143.00;;;31.28;24.29
38614;BME280;24369;49.480;8.488;2022-07-29T05:05:05;99727.75;;;28.79;24.54
38614;BME280;24369;49.480;8.488;2022-07-29T05:07:30;100238.78;;;31.98;24.18
38614;BME280;24369;49.480;8.488;2022-07-29T05:09:56;100234.91;;;31.74;24.79
38614;BME280;24369;49.480;8.488;2022-07-29T05:12:23;99992.28;;;30.41;24.63
38614;BME280;24369;49.480;8.488;2022-07-29T05:14:48;100310.72;;;32.02;24.65
38614;BME280;24369;49.480;8.488;2022-07-29T05:17:13;100092.88;;;31.14;24.82
38614;BME280;24369;49.480;8.488;2022-07-29T05:19:39;100245.91;;;32.15;24.74
38614;BME280;24369;49.480;8.488;2022-07-29T05:22:04;100160.78;;;31.46;24.63
38614;BME280;24369;49.480;8.488;2022-07-29T05:24:30;100249.72;;;32.29;24.47
38614;BME280;24369;49.480;8.488;2022-07-29T05:26:55;100035.19;;;31.07;24.61
38614;BME280;24369;49.480;8.488;2022-07-29T05:29:21;100258.44;;;32.41;25.24
38614;BME280;24369;49.480;8.488;2022-07-29T05:31:46;99731.31;;;28.85;24.85
38614;BME280;24369;49.480;8.488;2022-07-29T05:34:11;99742.84;;;29.02;24.82
38614;BME280;24369;49.480;8.488;2022-07-29T05:36:37;99747.34;;;29.29;25.04
38614;BME280;24369;49.480;8.488;2022-07-29T05:39:02;100117.22;;;31.46;25.03
38614;BME280;24369;49.480;8.488;2022-07-29T05:41:27;100127.03;;;31.52;24.83
38614;BME280;24369;49.480;8.488;2022-07-29T05:43:54;99793.69;;;29.75;24.58
38614;BME280;24369;49.480;8.488;2022-07-29T05:46:19;100022.41;;;31.18;24.39
38614;BME280;24369;49.480;8.488;2022-07-29T05:48:45;100221.66;;;32.18;23.98
38614;BME280;24369;49.480;8.488;2022-07-29T05:51:10;100197.38;;;32.37;23.52
38614;BME280;24369;49.480;8.488;2022-07-29T05:53:35;100273.16;;;32.81;23.65
38614;BME280;24369;49.480;8.488;2022-07-29T05:56:04;100220.28;;;32.62;23.60
38614;BME280;24369;49.480;8.488;2022-07-29T05:58:32;100266.91;;;32.96;23.42
38614;BME280;24369;49.480;8.488;2022-07-29T06:00:58;100273.69;;;32.93;23.38
38614;BME280;24369;49.480;8.488;2022-07-29T06:03:26;100215.41;;;32.48;23.74
38614;BME280;24369;49.480;8.488;2022-07-29T06:05:52;100110.72;;;31.52;23.62
38614;BME280;24369;49.480;8.488;2022-07-29T06:08:18;100208.28;;;32.37;24.38
38614;BME280;24369;49.480;8.488;2022-07-29T06:10:43;100005.81;;;31.14;24.45
38614;BME280;24369;49.480;8.488;2022-07-29T06:13:09;100130.88;;;31.92;24.35
38614;BME280;24369;49.480;8.488;2022-07-29T06:15:34;100285.97;;;33.01;24.37
38614;BME280;24369;49.480;8.488;2022-07-29T06:18:00;100282.16;;;33.12;24.33
38614;BME280;24369;49.480;8.488;2022-07-29T06:20:27;100034.97;;;31.19;24.73
38614;BME280;24369;49.480;8.488;2022-07-29T06:22:54;100063.00;;;31.29;24.57
38614;BME280;24369;49.480;8.488;2022-07-29T06:25:19;100287.34;;;32.88;24.25
38614;BME280;24369;49.480;8.488;2022-07-29T06:27:45;100200.66;;;32.14;24.30
38614;BME280;24369;49.480;8.488;2022-07-29T06:30:10;100317.09;;;33.05;24.12
38614;BME280;24369;49.480;8.488;2022-07-29T06:32:36;100168.22;;;32.43;24.04
38614;BME280;24369;49.480;8.488;2022-07-29T06:35:01;100156.47;;;32.63;23.93
38614;BME280;24369;49.480;8.488;2022-07-29T06:37:29;100226.91;;;33.90;23.79
38614;BME280;24369;49.480;8.488;2022-07-29T06:39:55;100067.00;;;33.64;22.32
38614;BME280;24369;49.480;8.488;2022-07-29T06:42:43;100217.56;;;34.65;22.22
38614;BME280;24369;49.480;8.488;2022-07-29T06:45:10;100165.53;;;34.12;22.17
38614;BME280;24369;49.480;8.488;2022-07-29T06:47:35;100052.69;;;32.99;22.74
38614;BME280;24369;49.480;8.488;2022-07-29T06:50:01;100125.53;;;33.53;22.67
38614;BME280;24369;49.480;8.488;2022-07-29T06:52:26;100238.41;;;33.82;22.97
38614;BME280;24369;49.480;8.488;2022-07-29T06:54:51;100263.06;;;33.77;23.07
38614;BME280;24369;49.480;8.488;2022-07-29T06:57:17;100220.69;;;33.20;24.02
38614;BME280;24369;49.480;8.488;2022-07-29T06:59:42;99917.41;;;31.06;23.59
38614;BME280;24369;49.480;8.488;2022-07-29T07:02:07;100102.81;;;32.02;24.54
38614;BME280;24369;49.480;8.488;2022-07-29T07:04:33;99930.97;;;30.86;24.55
38614;BME280;24369;49.480;8.488;2022-07-29T07:06:58;100253.97;;;33.22;24.33
38614;BME280;24369;49.480;8.488;2022-07-29T07:09:24;99936.63;;;30.59;25.05
38614;BME280;24369;49.480;8.488;2022-07-29T07:11:50;100089.78;;;31.94;24.78
38614;BME280;24369;49.480;8.488;2022-07-29T07:14:15;100072.28;;;32.20;24.52
38614;BME280;24369;49.480;8.488;2022-07-29T07:16:40;100071.72;;;32.23;24.51
38614;BME280;24369;49.480;8.488;2022-07-29T07:19:06;100301.53;;;32.90;25.60
38614;BME280;24369;49.480;8.488;2022-07-29T07:21:32;100316.25;;;32.38;26.40
38614;BME280;24369;49.480;8.488;2022-07-29T07:23:59;100211.28;;;32.05;26.27
38614;BME280;24369;49.480;8.488;2022-07-29T07:26:25;100332.00;;;33.49;25.22
38614;BME280;24369;49.480;8.488;2022-07-29T07:28:50;100275.78;;;33.42;25.10
38614;BME280;24369;49.480;8.488;2022-07-29T07:31:16;100113.41;;;32.39;25.25
38614;BME280;24369;49.480;8.488;2022-07-29T07:33:41;100046.69;;;32.06;24.91
38614;BME280;24369;49.480;8.488;2022-07-29T07:36:06;100347.56;;;34.57;24.44
38614;BME280;24369;49.480;8.488;2022-07-29T07:38:33;100318.50;;;35.25;23.62
38614;BME280;24369;49.480;8.488;2022-07-29T07:40:58;100172.81;;;33.87;23.67
38614;BME280;24369;49.480;8.488;2022-07-29T07:43:24;100242.16;;;34.02;23.47
38614;BME280;24369;49.480;8.488;2022-07-29T07:45:49;100039.06;;;32.08;24.22
38614;BME280;24369;49.480;8.488;2022-07-29T07:48:14;100186.78;;;33.31;24.63
38614;BME280;24369;49.480;8.488;2022-07-29T07:50:40;99894.78;;;31.21;24.57
38614;BME280;24369;49.480;8.488;2022-07-29T07:53:05;100230.47;;;33.36;24.86
38614;BME280;24369;49.480;8.488;2022-07-29T07:55:30;100111.78;;;32.38;25.26
38614;BME280;24369;49.480;8.488;2022-07-29T07:57:56;100198.72;;;32.40;25.60
38614;BME280;24369;49.480;8.488;2022-07-29T08:00:21;100317.91;;;33.01;25.89
38614;BME280;24369;49.480;8.488;2022-07-29T08:02:47;100327.91;;;33.46;25.84
38614;BME280;24369;49.480;8.488;2022-07-29T08:05:12;100226.22;;;32.84;25.92
38614;BME280;24369;49.480;8.488;2022-07-29T08:07:42;100243.19;;;32.61;26.32
38614;BME280;24369;49.480;8.488;2022-07-29T08:10:09;99966.25;;;30.66;25.67
38614;BME280;24369;49.480;8.488;2022-07-29T08:12:34;100079.84;;;31.21;26.75
38614;BME280;24369;49.480;8.488;2022-07-29T08:15:00;100343.25;;;33.21;26.26
38614;BME280;24369;49.480;8.488;2022-07-29T08:17:25;100202.25;;;32.71;26.14
38614;BME280;24369;49.480;8.488;2022-07-29T08:19:51;100196.03;;;32.45;25.85
38614;BME280;24369;49.480;8.488;2022-07-29T08:22:17;100123.28;;;32.04;26.67
38614;BME280;24369;49.480;8.488;2022-07-29T08:24:42;100125.41;;;31.82;26.15
38614;BME280;24369;49.480;8.488;2022-07-29T08:27:08;100359.84;;;33.56;26.17
38614;BME280;24369;49.480;8.488;2022-07-29T08:29:33;100101.97;;;32.47;25.43
38614;BME280;24369;49.480;8.488;2022-07-29T08:31:59;100203.75;;;33.23;25.05
38614;BME280;24369;49.480;8.488;2022-07-29T08:34:24;100340.13;;;34.24;25.11
38614;BME280;24369;49.480;8.488;2022-07-29T08:36:49;100341.34;;;34.47;25.22
38614;BME280;24369;49.480;8.488;2022-07-29T08:39:15;100051.31;;;32.21;25.71
38614;BME280;24369;49.480;8.488;2022-07-29T08:41:40;100191.81;;;32.93;25.79
38614;BME280;24369;49.480;8.488;2022-07-29T08:44:05;100354.03;;;33.78;26.29
38614;BME280;24369;49.480;8.488;2022-07-29T08:46:31;100206.44;;;33.28;25.80
38614;BME280;24369;49.480;8.488;2022-07-29T08:48:56;100297.47;;;33.78;25.77
38614;BME280;24369;49.480;8.488;2022-07-29T08:51:22;100227.72;;;33.36;25.77
38614;BME280;24369;49.480;8.488;2022-07-29T08:53:49;100084.25;;;32.45;25.71
38614;BME280;24369;49.480;8.488;2022-07-29T08:56:16;100299.69;;;34.60;24.98
38614;BME280;24369;49.480;8.488;2022-07-29T08:58:43;100256.75;;;35.14;23.76
38614;BME280;24369;49.480;8.488;2022-07-29T09:01:10;100337.41;;;35.26;24.55
38614;BME280;24369;49.480;8.488;2022-07-29T09:03:38;100234.50;;;34.67;24.41
38614;BME280;24369;49.480;8.488;2022-07-29T09:06:05;100338.66;;;35.34;23.79
38614;BME280;24369;49.480;8.488;2022-07-29T09:08:31;100298.78;;;34.99;24.17
38614;BME280;24369;49.480;8.488;2022-07-29T09:10:57;100130.69;;;33.94;24.67
38614;BME280;24369;49.480;8.488;2022-07-29T09:13:23;100231.34;;;34.50;24.38
38614;BME280;24369;49.480;8.488;2022-07-29T09:15:50;100265.31;;;35.93;23.94
38614;BME280;24369;49.480;8.488;2022-07-29T09:21:00;100088.66;;;36.59;20.97
38614;BME280;24369;49.480;8.488;2022-07-29T09:24:13;100285.31;;;37.66;21.02
38614;BME280;24369;49.480;8.488;2022-07-29T09:26:40;100341.59;;;37.82;21.10
38614;BME280;24369;49.480;8.488;2022-07-29T09:29:11;100343.44;;;37.17;21.76
38614;BME280;24369;49.480;8.488;2022-07-29T09:31:40;100226.72;;;36.41;21.78
38614;BME280;24369;49.480;8.488;2022-07-29T09:34:08;100330.22;;;36.87;21.80
38614;BME280;24369;49.480;8.488;2022-07-29T09:36:40;100332.63;;;35.37;23.20
38614;BME280;24369;49.480;8.488;2022-07-29T09:39:07;100203.25;;;34.73;22.75
38614;BME280;24369;49.480;8.488;2022-07-29T09:41:45;100342.06;;;35.74;22.94
38614;BME280;24369;49.480;8.488;2022-07-29T09:44:11;100098.31;;;33.77;23.64
38614;BME280;24369;49.480;8.488;2022-07-29T09:46:36;100118.16;;;33.87;23.68
38614;BME280;24369;49.480;8.488;2022-07-29T09:49:12;99761.22;;;31.07;24.34
38614;BME280;24369;49.480;8.488;2022-07-29T09:51:38;100356.41;;;34.83;24.36
38614;BME280;24369;49.480;8.488;2022-07-29T09:54:23;100282.94;;;34.96;23.81
38614;BME280;24369;49.480;8.488;2022-07-29T09:56:51;100269.00;;;34.68;23.52
38614;BME280;24369;49.480;8.488;2022-07-29T09:59:17;100263.97;;;35.04;23.39
38614;BME280;24369;49.480;8.488;2022-07-29T10:01:42;100336.25;;;35.57;23.25
38614;BME280;24369;49.480;8.488;2022-07-29T10:04:08;100221.38;;;33.96;24.48
38614;BME280;24369;49.480;8.488;2022-07-29T10:06:34;100131.44;;;33.65;23.96
38614;BME280;24369;49.480;8.488;2022-07-29T10:09:09;100335.97;;;35.29;23.46
38614;BME280;24369;49.480;8.488;2022-07-29T10:11:35;100342.28;;;35.29;23.25
38614;BME280;24369;49.480;8.488;2022-07-29T10:14:02;100340.50;;;34.86;23.54
38614;BME280;24369;49.480;8.488;2022-07-29T10:16:29;100001.09;;;33.36;23.22
38614;BME280;24369;49.480;8.488;2022-07-29T10:18:58;100181.00;;;34.56;23.18
38614;BME280;24369;49.480;8.488;2022-07-29T10:21:25;99964.47;;;33.42;22.89
38614;BME280;24369;49.480;8.488;2022-07-29T10:23:52;100121.72;;;34.46;22.93
38614;BME280;24369;49.480;8.488;2022-07-29T10:26:17;100215.38;;;35.15;22.55
38614;BME280;24369;49.480;8.488;2022-07-29T10:28:44;100327.72;;;36.20;22.18
38614;BME280;24369;49.480;8.488;2022-07-29T10:31:22;100314.53;;;35.84;22.12
38614;BME280;24369;49.480;8.488;2022-07-29T10:34:13;100318.47;;;36.35;21.94
38614;BME280;24369;49.480;8.488;2022-07-29T10:36:48;100317.63;;;35.77;22.21
38614;BME280;24369;49.480;8.488;2022-07-29T10:42:06;100173.44;;;34.72;22.71
38614;BME280;24369;49.480;8.488;2022-07-29T10:44:34;100214.06;;;35.31;22.13
38614;BME280;24369;49.480;8.488;2022-07-29T10:47:00;99966.75;;;33.30;22.86
38614;BME280;24369;49.480;8.488;2022-07-29T10:49:26;100245.34;;;35.49;21.95
38614;BME280;24369;49.480;8.488;2022-07-29T10:59:45;100328.09;;;35.94;21.97
38614;BME280;24369;49.480;8.488;2022-07-29T11:07:22;100075.31;;;35.27;21.33
38614;BME280;24369;49.480;8.488;2022-07-29T11:15:10;100074.78;;;35.06;21.64
38614;BME280;24369;49.480;8.488;2022-07-29T11:23:00;100138.88;;;35.43;21.84
38614;BME280;24369;49.480;8.488;2022-07-29T11:25:26;100229.34;;;36.32;21.42
38614;BME280;24369;49.480;8.488;2022-07-29T11:27:52;99982.78;;;34.24;21.90
38614;BME280;24369;49.480;8.488;2022-07-29T11:30:19;100287.50;;;36.81;21.10
38614;BME280;24369;49.480;8.488;2022-07-29T11:32:45;100288.91;;;36.64;21.07
38614;BME280;24369;49.480;8.488;2022-07-29T11:35:15;100287.63;;;36.76;21.21
38614;BME280;24369;49.480;8.488;2022-07-29T11:40:17;100304.66;;;37.05;20.96
38614;BME280;24369;49.480;8.488;2022-07-29T11:42:44;100023.72;;;35.15;20.96
38614;BME280;24369;49.480;8.488;2022-07-29T11:45:20;100285.34;;;37.10;20.51
38614;BME280;24369;49.480;8.488;2022-07-29T11:47:47;100283.41;;;37.11;20.73
38614;BME280;24369;49.480;8.488;2022-07-29T11:50:16;100303.03;;;37.18;20.32
38614;BME280;24369;49.480;8.488;2022-07-29T11:52:46;100226.91;;;36.91;20.62
38614;BME280;24369;49.480;8.488;2022-07-29T11:55:18;100173.22;;;36.57;20.51
38614;BME280;24369;49.480;8.488;2022-07-29T11:57:51;99877.09;;;35.09;20.26
38614;BME280;24369;49.480;8.488;2022-07-29T12:00:39;100045.03;;;36.16;20.02
38614;BME280;24369;49.480;8.488;2022-07-29T12:03:09;100298.81;;;36.79;20.50
38614;BME280;24369;49.480;8.488;2022-07-29T12:08:11;100269.25;;;37.59;19.70
38614;BME280;24369;49.480;8.488;2022-07-29T12:10:37;99986.63;;;35.88;19.76
38614;BME280;24369;49.480;8.488;2022-07-29T12:13:04;100050.69;;;35.60;20.36
38614;BME280;24369;49.480;8.488;2022-07-29T12:15:29;100289.25;;;36.77;20.00
38614;BME280;24369;49.480;8.488;2022-07-29T12:17:55;100286.16;;;36.97;19.74
38614;BME280;24369;49.480;8.488;2022-07-29T12:20:25;100315.13;;;37.03;19.71
38614;BME280;24369;49.480;8.488;2022-07-29T12:22:51;100132.53;;;36.32;19.72
38614;BME280;24369;49.480;8.488;2022-07-29T12:25:19;100260.28;;;37.26;19.51
38614;BME280;24369;49.480;8.488;2022-07-29T12:27:44;100103.84;;;36.10;19.45
38614;BME280;24369;49.480;8.488;2022-07-29T12:30:12;100203.94;;;36.87;19.43
38614;BME280;24369;49.480;8.488;2022-07-29T12:32:43;100183.13;;;36.39;19.93
38614;BME280;24369;49.480;8.488;2022-07-29T12:35:14;100223.25;;;37.37;19.06
38614;BME280;24369;49.480;8.488;2022-07-29T12:37:42;100257.44;;;37.58;18.73
38614;BME280;24369;49.480;8.488;2022-07-29T12:40:09;100213.31;;;37.13;18.90
38614;BME280;24369;49.480;8.488;2022-07-29T12:42:35;100144.31;;;36.32;18.86
38614;BME280;24369;49.480;8.488;2022-07-29T12:45:01;100090.59;;;36.45;18.39
38614;BME280;24369;49.480;8.488;2022-07-29T12:47:27;100230.78;;;36.90;18.89
38614;BME280;24369;49.480;8.488;2022-07-29T12:50:13;100209.25;;;36.97;19.07
38614;BME280;24369;49.480;8.488;2022-07-29T12:52:43;100160.03;;;36.59;18.97
38614;BME280;24369;49.480;8.488;2022-07-29T12:55:08;100210.63;;;37.36;18.78
38614;BME280;24369;49.480;8.488;2022-07-29T12:57:48;100025.16;;;36.38;18.73
38614;BME280;24369;49.480;8.488;2022-07-29T13:00:21;100297.06;;;37.30;18.84
38614;BME280;24369;49.480;8.488;2022-07-29T13:02:55;100248.78;;;37.65;18.54
38614;BME280;24369;49.480;8.488;2022-07-29T13:05:21;99785.38;;;33.84;18.95
38614;BME280;24369;49.480;8.488;2022-07-29T13:07:47;100210.44;;;37.18;18.38
38614;BME280;24369;49.480;8.488;2022-07-29T13:10:17;100246.69;;;37.21;18.36
38614;BME280;24369;49.480;8.488;2022-07-29T13:13:11;100212.59;;;36.47;19.01
38614;BME280;24369;49.480;8.488;2022-07-29T13:15:39;100049.16;;;35.53;18.64
38614;BME280;24369;49.480;8.488;2022-07-29T13:18:28;100252.06;;;37.12;18.49
38614;BME280;24369;49.480;8.488;2022-07-29T13:20:54;100245.34;;;37.04;18.77
38614;BME280;24369;49.480;8.488;2022-07-29T13:23:20;100298.47;;;37.13;18.62
38614;BME280;24369;49.480;8.488;2022-07-29T13:25:45;100261.03;;;37.45;18.28
38614;BME280;24369;49.480;8.488;2022-07-29T13:28:11;100157.16;;;36.64;18.39
38614;BME280;24369;49.480;8.488;2022-07-29T13:30:37;100219.44;;;36.97;18.67
38614;BME280;24369;49.480;8.488;2022-07-29T13:33:03;100123.03;;;35.77;18.88
38614;BME280;24369;49.480;8.488;2022-07-29T13:35:28;100318.16;;;36.55;18.96